»·PEaware :: AAL1097 KPHX-KLAS

AAL1097 :: KPHX-KLAS

FLIGHT INFORMATION

Flight Status: Arrived
Operator:
American Airlines
More flights by this operator :: More flights under this callsign
Pilot: Adam A. (5112)
Aircraft: BOEING 767-300
(B763)
More flights by this aircraft type
Origin: KPHX Phoenix Sky Harbor Intl
United States
Destination: KLAS McCarran Intl
United States
More flights between these airports :: More routes between these airports
Route: +MAYSA3 SISIE IGM TYSSN3
File this flight plan on PilotEdge
Remarks:
Altitude:
(Current/Filed)
28,000ft
Speed:
(Current/Filed)
450kts
Departed: 21-Feb-16 05:03 PM
Arrived: 21-Feb-16 05:54 PM
Distance/Time
Traveled:
222nm/0:51
Distance/Time
To Go:
Arrived

Flight Plot

Page will automatically refresh every two minutes.


Map Options




Map Legend


Flown Route
Filed Route
Departure Airport
Arrival Airport
Navaid (VOR, NDB)
Fix

Horizontal Profiles

Position Reports

Time Latitude Longitude Heading Altitude Ground
Speed
21-Feb-16 15:58 33.433652 -111.997390 68 1146ft 0kts
21-Feb-16 15:59 33.433652 -111.997390 68 1146ft 0kts
21-Feb-16 16:00 33.433652 -111.997390 68 1146ft 0kts
21-Feb-16 16:01 33.433652 -111.997390 68 1146ft 0kts
21-Feb-16 16:02 33.433652 -111.997390 68 1146ft 0kts
21-Feb-16 16:03 33.433652 -111.997390 68 1146ft 0kts
21-Feb-16 16:04 33.433652 -111.997390 68 1146ft 0kts
21-Feb-16 16:05 33.433652 -111.997390 68 1146ft 0kts
21-Feb-16 16:06 33.433652 -111.997390 68 1146ft 0kts
21-Feb-16 16:07 33.433652 -111.997390 68 1146ft 0kts
21-Feb-16 16:08 33.433652 -111.997390 68 1146ft 0kts
21-Feb-16 16:09 33.433652 -111.997390 68 1146ft 0kts
21-Feb-16 16:10 33.433652 -111.997390 68 1146ft 0kts
21-Feb-16 16:11 33.433652 -111.997390 68 1146ft 0kts
21-Feb-16 16:12 33.433652 -111.997390 68 1146ft 0kts
21-Feb-16 16:13 33.433652 -111.997390 68 1146ft 0kts
21-Feb-16 16:14 33.433652 -111.997390 68 1146ft 0kts
21-Feb-16 16:15 33.433652 -111.997390 68 1146ft 0kts
21-Feb-16 16:16 33.433652 -111.997390 68 1146ft 0kts
21-Feb-16 16:17 33.433652 -111.997390 68 1146ft 0kts
21-Feb-16 16:18 33.433652 -111.997390 68 1146ft 0kts
21-Feb-16 16:18 33.433652 -111.997390 68 1146ft 0kts
21-Feb-16 16:19 33.433652 -111.997390 68 1146ft 0kts
21-Feb-16 16:20 33.433652 -111.997390 68 1146ft 0kts
21-Feb-16 16:21 33.433652 -111.997390 68 1146ft 0kts
21-Feb-16 16:22 33.433652 -111.997390 68 1146ft 0kts
21-Feb-16 16:23 33.433652 -111.997390 68 1146ft 0kts
21-Feb-16 16:25 33.433652 -111.997390 68 1146ft 0kts
21-Feb-16 16:26 33.433652 -111.997390 68 1146ft 0kts
21-Feb-16 16:27 33.433652 -111.997390 68 1146ft 0kts
21-Feb-16 16:28 33.433652 -111.997390 68 1146ft 0kts
21-Feb-16 16:29 33.433652 -111.997390 68 1146ft 0kts
21-Feb-16 16:30 33.433652 -111.997390 68 1146ft 0kts
21-Feb-16 16:31 33.433652 -111.997390 68 1146ft 0kts
21-Feb-16 16:32 33.433652 -111.997390 68 1146ft 0kts
21-Feb-16 16:33 33.433652 -111.997390 68 1146ft 0kts
21-Feb-16 16:34 33.433652 -111.997390 68 1145ft 0kts
21-Feb-16 16:35 33.433652 -111.997390 68 1145ft 0kts
21-Feb-16 16:36 33.433652 -111.997390 68 1145ft 0kts
21-Feb-16 16:37 33.433652 -111.997390 68 1145ft 0kts
21-Feb-16 16:38 33.433652 -111.997390 68 1145ft 0kts
21-Feb-16 16:39 33.433652 -111.997390 68 1145ft 0kts
21-Feb-16 16:40 33.433652 -111.997390 68 1145ft 0kts
21-Feb-16 16:41 33.433652 -111.997390 68 1145ft 0kts
21-Feb-16 16:42 33.433652 -111.997390 68 1145ft 0kts
21-Feb-16 16:43 33.433652 -111.997390 68 1145ft 0kts
21-Feb-16 16:44 33.433652 -111.997390 68 1145ft 0kts
21-Feb-16 16:45 33.433652 -111.997390 68 1145ft 0kts
21-Feb-16 16:46 33.433652 -111.997390 68 1145ft 0kts
21-Feb-16 16:47 33.433652 -111.997390 68 1145ft 0kts
21-Feb-16 16:48 33.433652 -111.997390 68 1145ft 0kts
21-Feb-16 16:49 33.433652 -111.997390 68 1145ft 0kts
21-Feb-16 16:50 33.433652 -111.997390 68 1145ft 0kts
21-Feb-16 16:51 33.433652 -111.997390 68 1145ft 0kts
21-Feb-16 16:52 33.433651 -111.997394 68 1145ft 0kts
21-Feb-16 16:53 33.433665 -111.997831 163 1145ft 1kts
21-Feb-16 16:54 33.433806 -111.997844 180 1145ft 0kts
21-Feb-16 16:55 33.432844 -111.994540 89 1145ft 12kts
21-Feb-16 16:56 33.431028 -111.994888 270 1145ft 24kts
21-Feb-16 16:57 33.432081 -112.040709 273 3270ft 185kts
21-Feb-16 16:58 33.436835 -112.101713 277 7489ft 188kts
21-Feb-16 16:59 33.488866 -112.143697 330 9454ft 270kts
21-Feb-16 17:00 33.563500 -112.184885 344 11823ft 341kts
21-Feb-16 17:01 33.655376 -112.213629 342 16029ft 348kts
21-Feb-16 17:02 33.749071 -112.243840 341 19701ft 356kts
21-Feb-16 17:03 33.841230 -112.273687 341 22897ft 363kts
21-Feb-16 17:04 33.938908 -112.305400 341 25745ft 371kts
21-Feb-16 17:05 34.035571 -112.345089 325 27985ft 358kts
21-Feb-16 17:06 34.113765 -112.421087 320 28035ft 382kts
21-Feb-16 17:07 34.197703 -112.505413 320 28079ft 396kts
21-Feb-16 17:08 34.278516 -112.587037 320 28131ft 396kts
21-Feb-16 17:09 34.360733 -112.670324 320 28129ft 396kts
21-Feb-16 17:10 34.444432 -112.755346 320 28126ft 396kts
21-Feb-16 17:11 34.527979 -112.840445 320 28124ft 396kts
21-Feb-16 17:12 34.606080 -112.922856 319 28139ft 396kts
21-Feb-16 17:13 34.685751 -113.009958 319 28137ft 396kts
21-Feb-16 17:14 34.766621 -113.098585 319 28133ft 396kts
21-Feb-16 17:15 34.844272 -113.183127 318 28138ft 395kts
21-Feb-16 17:16 34.925626 -113.272603 318 28133ft 394kts
21-Feb-16 17:17 34.999115 -113.370602 303 28133ft 399kts
21-Feb-16 17:18 35.054634 -113.488305 303 28127ft 399kts
21-Feb-16 17:19 35.109374 -113.606233 303 28122ft 399kts
21-Feb-16 17:20 35.162925 -113.722226 303 28021ft 392kts
21-Feb-16 17:21 35.211721 -113.828227 302 25269ft 348kts
21-Feb-16 17:22 35.260102 -113.928651 311 23981ft 345kts
21-Feb-16 17:23 35.332783 -114.001423 323 20910ft 334kts
21-Feb-16 17:24 35.404183 -114.067976 323 18625ft 328kts
21-Feb-16 17:24 35.463846 -114.123333 323 17467ft 327kts
21-Feb-16 17:25 35.536021 -114.190243 323 16074ft 325kts
21-Feb-16 17:26 35.606562 -114.256129 323 14715ft 323kts
21-Feb-16 17:27 35.677662 -114.322699 323 13265ft 316kts
21-Feb-16 17:29 35.742037 -114.381931 332 12085ft 280kts
21-Feb-16 17:30 35.814282 -114.416946 338 12000ft 279kts
21-Feb-16 17:31 35.885244 -114.450232 338 11856ft 248kts
21-Feb-16 17:32 35.946482 -114.478943 339 10729ft 233kts
21-Feb-16 17:33 36.006627 -114.507168 339 9462ft 248kts
21-Feb-16 17:34 36.046456 -114.574747 285 7979ft 236kts
21-Feb-16 17:35 36.060458 -114.654025 285 8018ft 236kts
21-Feb-16 17:36 36.072960 -114.733783 274 8015ft 239kts
21-Feb-16 17:37 36.073313 -114.814591 273 7111ft 226kts
21-Feb-16 17:38 36.073488 -114.893095 272 5495ft 234kts
21-Feb-16 17:39 36.074302 -114.968670 272 4905ft 202kts
21-Feb-16 17:40 36.073641 -115.038842 272 3995ft 208kts
21-Feb-16 17:41 36.073333 -115.106283 273 2789ft 184kts
21-Feb-16 17:42 36.072211 -115.173363 266 3945ft 207kts
21-Feb-16 17:43 36.025110 -115.199485 131 4210ft 241kts
21-Feb-16 17:44 36.009538 -115.107391 89 3888ft 290kts
21-Feb-16 17:45 36.041155 -115.040030 17 3516ft 225kts
21-Feb-16 17:46 36.073376 -115.069019 274 3014ft 169kts
21-Feb-16 17:47 36.073616 -115.123245 270 2261ft 151kts
21-Feb-16 17:48 36.074520 -115.150151 297 2152ft 19kts
21-Feb-16 17:49 36.077556 -115.152671 335 2152ft 20kts
21-Feb-16 17:50 36.081284 -115.154515 20 2152ft 15kts
21-Feb-16 17:51 36.082201 -115.153131 24 2152ft 1kts
21-Feb-16 17:52 36.082239 -115.153110 23 2152ft 0kts

Navigation Log

Ident Type
Flight plan parsing failed, navigation log unavailable